Time;durP1;ratioP1;P1;durP2;ratioP2;P2;SDS_P1;SDS_P2;PMS_P1;PMS_P2;Temp;Humidity;BMP_temperature;BMP_pressure;BME280_temperature;BME280_humidity;BME280_pressure;Samples;Min_cycle;Max_cycle;Signal;HPM_P1;HPM_P2
2021/04/05 00:05:17;;;;;;;0.98;0.68;;;9.80;61.00;;;;;;20867907;28;20036;-81
2021/04/05 00:15:18;;;;;;;2.33;1.60;;;9.90;61.20;;;;;;20885353;28;20033;-79
2021/04/05 00:25:18;;;;;;;2.75;1.15;;;9.90;61.20;;;;;;20900929;28;20056;-80
2021/04/05 00:35:20;;;;;;;2.30;1.00;;;9.80;61.10;;;;;;20868060;28;20065;-79
2021/04/05 00:45:21;;;;;;;0.65;0.52;;;9.80;61.10;;;;;;20892664;28;20071;-80
2021/04/05 00:55:23;;;;;;;3.97;2.03;;;9.80;61.20;;;;;;20900070;28;20045;-80
2021/04/05 01:05:23;;;;;;;3.92;1.77;;;9.80;61.20;;;;;;20915903;28;20102;-80
2021/04/05 01:15:24;;;;;;;3.20;1.93;;;9.80;61.20;;;;;;20881588;28;20124;-80
2021/04/05 01:25:25;;;;;;;4.75;2.55;;;9.80;61.20;;;;;;20880565;28;20433;-80
2021/04/05 01:35:26;;;;;;;3.80;2.40;;;9.80;61.20;;;;;;20896871;28;20581;-80
2021/04/05 01:45:27;;;;;;;5.20;1.90;;;9.80;61.20;;;;;;20936699;28;20397;-80
2021/04/05 01:55:29;;;;;;;2.75;1.45;;;9.80;61.20;;;;;;20977289;28;20111;-80
2021/04/05 02:05:30;;;;;;;3.22;1.63;;;9.70;61.20;;;;;;20977498;28;20136;-79
2021/04/05 02:15:33;;;;;;;4.38;2.38;;;9.80;61.20;;;;;;20946950;28;20527;-80
2021/04/05 02:25:34;;;;;;;2.42;1.67;;;9.80;61.30;;;;;;20875220;28;20037;-80
2021/04/05 02:35:34;;;;;;;2.72;1.48;;;9.70;61.20;;;;;;20909123;28;20123;-79
2021/04/05 02:45:36;;;;;;;9.65;2.92;;;9.70;61.20;;;;;;20874901;28;20505;-79
2021/04/05 02:55:36;;;;;;;4.57;2.58;;;9.70;61.20;;;;;;20890568;28;20569;-79
2021/04/05 03:05:37;;;;;;;4.10;1.83;;;9.70;61.20;;;;;;20888513;28;20072;-81
2021/04/05 03:15:38;;;;;;;5.55;2.70;;;9.70;61.20;;;;;;20889288;28;20044;-81
2021/04/05 03:25:38;;;;;;;4.03;3.03;;;9.70;61.20;;;;;;20887987;28;20297;-81
2021/04/05 03:35:41;;;;;;;6.18;3.25;;;9.70;61.20;;;;;;20871205;28;20052;-81
2021/04/05 03:45:58;;;;;;;3.35;2.05;;;9.70;61.30;;;;;;20902178;28;20044;-80
2021/04/05 03:56:05;;;;;;;3.33;1.97;;;9.70;61.40;;;;;;20968715;28;20032;-80
2021/04/05 04:06:06;;;;;;;5.97;2.58;;;9.70;61.40;;;;;;20951685;28;20298;-80
2021/04/05 04:16:08;;;;;;;5.90;2.20;;;9.70;61.50;;;;;;20968453;28;20498;-79
2021/04/05 04:26:09;;;;;;;5.57;2.30;;;9.70;61.50;;;;;;20967737;28;20090;-79
2021/04/05 04:36:10;;;;;;;5.50;2.38;;;9.70;61.60;;;;;;20928352;28;20036;-79
2021/04/05 04:46:10;;;;;;;3.45;2.30;;;9.70;61.70;;;;;;20867805;28;20045;-79
2021/04/05 04:56:11;;;;;;;7.85;2.42;;;9.70;61.80;;;;;;20883486;28;20035;-80
2021/04/05 05:06:12;;;;;;;4.88;2.78;;;9.70;61.80;;;;;;20882762;28;20376;-80
2021/04/05 05:16:13;;;;;;;6.03;2.33;;;9.70;62.00;;;;;;20881788;28;20127;-80
2021/04/05 05:26:14;;;;;;;4.00;1.45;;;9.70;62.00;;;;;;20882617;28;20049;-80
2021/04/05 05:36:16;;;;;;;2.75;1.88;;;9.70;62.10;;;;;;20897230;28;20393;-80
2021/04/05 05:46:23;;;;;;;3.55;2.33;;;9.70;62.30;;;;;;20893911;28;20044;-80
2021/04/05 05:57:05;;;;;;;2.95;1.92;;;9.70;62.60;;;;;;20879320;28;20033;-80
2021/04/05 06:07:28;;;;;;;9.98;2.50;;;9.70;62.90;;;;;;20906905;28;20066;-84
2021/04/05 06:17:41;;;;;;;7.90;2.90;;;9.70;63.20;;;;;;20895666;28;20116;-81
2021/04/05 06:27:53;;;;;;;4.78;2.42;;;9.70;63.40;;;;;;20911732;28;20049;-78
2021/04/05 06:38:00;;;;;;;4.88;2.47;;;9.70;63.90;;;;;;20876722;28;20037;-76
2021/04/05 06:48:25;;;;;;;2.17;1.42;;;9.80;64.00;;;;;;20893339;28;20095;-79
2021/04/05 06:58:47;;;;;;;4.30;1.83;;;9.70;64.10;;;;;;20910454;28;20395;-80
2021/04/05 07:09:02;;;;;;;2.70;2.03;;;9.80;64.40;;;;;;20891701;28;20116;-77
2021/04/05 07:19:19;;;;;;;3.80;1.38;;;9.70;64.70;;;;;;20890103;28;20136;-79
2021/04/05 07:29:41;;;;;;;1.50;0.93;;;9.70;64.90;;;;;;20906041;28;20060;-78
2021/04/05 07:39:45;;;;;;;3.25;1.10;;;9.70;64.90;;;;;;20904037;28;20131;-77
2021/04/05 07:49:52;;;;;;;1.75;0.90;;;9.60;64.80;;;;;;20886576;28;20032;-77
2021/04/05 07:59:58;;;;;;;;;;;9.70;64.80;;;;;;20887482;28;20562;-76
2021/04/05 08:10:09;;;;;;;0.93;0.22;;;9.60;64.80;;;;;;20885623;28;19916;-76
2021/04/05 08:20:18;;;;;;;1.52;0.60;;;9.60;64.60;;;;;;20885249;28;20033;-75
2021/04/05 08:30:23;;;;;;;0.17;0.10;;;9.60;64.50;;;;;;21239992;22;20069;-78
2021/04/05 08:40:45;;;;;;;1.15;0.40;;;9.60;64.50;;;;;;20802803;28;20052;-79
2021/04/05 08:50:51;;;;;;;1.55;0.25;;;9.60;64.40;;;;;;20802233;28;20372;-75
2021/04/05 09:00:52;;;;;;;1.00;0.55;;;9.50;64.30;;;;;;20785755;28;20037;-79
2021/04/05 09:11:05;;;;;;;0.10;0.10;;;9.50;64.20;;;;;;20800463;28;20045;-77
2021/04/05 09:21:31;;;;;;;1.45;0.40;;;9.50;64.10;;;;;;20815366;28;20467;-76
2021/04/05 09:31:53;;;;;;;0.10;0.10;;;9.50;64.00;;;;;;20801199;28;20176;-78
2021/04/05 09:42:19;;;;;;;1.38;0.63;;;9.50;63.90;;;;;;20747593;28;20033;-76
2021/04/05 09:52:59;;;;;;;0.28;0.28;;;9.50;63.90;;;;;;20788011;28;20141;-75
2021/04/05 10:03:04;;;;;;;0.35;0.30;;;9.50;63.80;;;;;;20810005;28;20036;-77
2021/04/05 10:13:06;;;;;;;0.20;0.20;;;9.50;63.60;;;;;;20890257;28;20102;-78
2021/04/05 10:23:08;;;;;;;0.52;0.30;;;9.40;63.60;;;;;;20876320;28;20463;-76
2021/04/05 10:33:13;;;;;;;0.10;0.10;;;9.40;63.40;;;;;;20893876;28;20094;-78
2021/04/05 10:43:37;;;;;;;0.75;0.38;;;9.40;63.30;;;;;;20893960;28;20064;-76
2021/04/05 10:53:40;;;;;;;0.45;0.20;;;9.40;63.00;;;;;;20774097;28;20423;-74
2021/04/05 11:03:46;;;;;;;0.35;0.20;;;9.40;62.90;;;;;;20760347;28;20438;-75
2021/04/05 11:13:48;;;;;;;3.08;0.40;;;9.40;62.80;;;;;;20777048;28;20453;-79
2021/04/05 11:23:50;;;;;;;0.20;0.20;;;9.40;62.70;;;;;;20741786;28;20048;-75
2021/04/05 11:33:59;;;;;;;0.00;0.00;;;9.40;62.60;;;;;;20757967;28;20041;-75
2021/04/05 11:44:01;;;;;;;1.48;0.35;;;9.40;62.50;;;;;;20740834;28;20034;-76
2021/04/05 11:54:02;;;;;;;0.00;0.00;;;9.40;62.40;;;;;;20838057;28;20073;-77
2021/04/05 12:04:17;;;;;;;0.00;0.00;;;9.40;62.20;;;;;;20822037;28;20030;-77
2021/04/05 12:14:27;;;;;;;0.00;0.00;;;9.30;62.20;;;;;;20805245;28;20045;-78
2021/04/05 12:24:33;;;;;;;0.10;0.10;;;9.30;61.90;;;;;;20786511;28;20029;-75
2021/04/05 12:34:37;;;;;;;0.00;0.00;;;9.30;61.70;;;;;;20802793;28;20042;-77
2021/04/05 12:44:39;;;;;;;0.10;0.10;;;9.30;61.40;;;;;;20815013;28;20048;-75
2021/04/05 12:54:43;;;;;;;0.15;0.13;;;9.30;61.10;;;;;;20828392;28;20049;-78
2021/04/05 13:05:11;;;;;;;0.40;0.40;;;9.20;60.80;;;;;;20795493;28;20269;-76
2021/04/05 13:15:30;;;;;;;0.00;0.00;;;9.20;60.50;;;;;;20813413;28;20052;-76
2021/04/05 13:25:40;;;;;;;1.30;0.38;;;9.20;60.20;;;;;;20798621;28;20187;-75
2021/04/05 13:35:43;;;;;;;0.95;0.75;;;9.20;60.00;;;;;;20796901;28;20472;-78
2021/04/05 13:45:47;;;;;;;0.30;0.20;;;9.20;60.00;;;;;;20804938;28;20506;-76
2021/04/05 13:55:52;;;;;;;0.08;0.03;;;9.20;59.80;;;;;;20796608;28;20137;-72
2021/04/05 14:05:52;;;;;;;0.75;0.30;;;9.20;59.60;;;;;;20796159;28;20452;-77
2021/04/05 14:15:53;;;;;;;2.83;0.30;;;9.20;59.50;;;;;;20796194;28;20034;-82
2021/04/05 14:26:07;;;;;;;1.08;0.28;;;9.30;59.60;;;;;;20812906;28;20128;-82
2021/04/05 14:36:09;;;;;;;0.00;0.00;;;9.30;59.40;;;;;;20793952;28;20049;-80
2021/04/05 14:46:14;;;;;;;0.20;0.20;;;9.40;59.20;;;;;;20758198;28;20069;-80
2021/04/05 14:56:16;;;;;;;0.10;0.10;;;9.50;58.80;;;;;;20759733;28;20472;-76
2021/04/05 15:06:19;;;;;;;1.30;0.38;;;9.60;58.30;;;;;;20756376;28;20064;-77
2021/04/05 15:16:23;;;;;;;0.10;0.10;;;9.60;57.70;;;;;;20792406;28;20049;-81
2021/04/05 15:26:24;;;;;;;0.10;0.10;;;9.50;57.30;;;;;;20805950;28;20045;-80
2021/04/05 15:36:30;;;;;;;0.10;0.10;;;9.60;57.10;;;;;;20806959;28;20034;-81
2021/04/05 15:46:59;;;;;;;4.83;0.20;;;9.60;56.80;;;;;;20821339;28;20069;-78
2021/04/05 15:57:17;;;;;;;1.10;0.45;;;9.60;56.40;;;;;;20820332;28;20041;-76
2021/04/05 16:07:26;;;;;;;2.75;0.20;;;9.60;56.30;;;;;;20836814;28;20042;-79
2021/04/05 16:17:29;;;;;;;1.05;0.40;;;9.60;56.50;;;;;;20801790;28;20139;-76
2021/04/05 16:27:31;;;;;;;0.00;0.00;;;9.60;56.30;;;;;;20801198;28;20048;-75
2021/04/05 16:37:38;;;;;;;1.85;0.22;;;9.60;56.20;;;;;;20769671;28;20072;-76
2021/04/05 16:47:43;;;;;;;0.38;0.35;;;9.60;56.20;;;;;;20788958;28;20038;-77
2021/04/05 16:58:04;;;;;;;0.38;0.15;;;9.50;56.00;;;;;;20834141;28;20037;-77
2021/04/05 17:08:10;;;;;;;0.20;0.20;;;9.50;56.00;;;;;;20818586;28;20112;-78
2021/04/05 17:18:11;;;;;;;0.08;0.08;;;9.40;56.10;;;;;;20817831;28;20435;-76
2021/04/05 17:28:18;;;;;;;0.13;0.13;;;9.40;56.20;;;;;;20843711;28;20212;-80
2021/04/05 17:38:21;;;;;;;;;;;9.40;56.20;;;;;;20815737;28;20491;-76
2021/04/05 17:49:04;;;;;;;1.08;0.13;;;9.30;56.00;;;;;;20846215;28;19924;-77
2021/04/05 17:59:26;;;;;;;3.10;0.40;;;9.30;56.10;;;;;;20754322;28;20467;-77
2021/04/05 18:09:48;;;;;;;0.35;0.35;;;9.30;56.10;;;;;;20747520;28;20038;-77
2021/04/05 18:20:20;;;;;;;0.73;0.45;;;9.20;55.80;;;;;;20746806;28;20030;-77
2021/04/05 18:30:32;;;;;;;0.75;0.45;;;9.20;55.80;;;;;;20760812;28;20042;-75
2021/04/05 18:40:34;;;;;;;0.55;0.22;;;9.20;55.80;;;;;;20762180;28;20034;-75
2021/04/05 18:51:04;;;;;;;1.45;0.47;;;9.20;55.80;;;;;;20798995;28;20033;-76
2021/04/05 19:01:04;;;;;;;0.10;0.10;;;9.20;55.70;;;;;;20808728;28;20405;-76
2021/04/05 19:11:15;;;;;;;1.65;0.10;;;9.20;55.80;;;;;;20791737;28;20095;-76
2021/04/05 19:33:00;;;;;;;0.10;0.10;;;9.10;55.80;;;;;;20820005;28;20041;-76
2021/04/05 19:43:17;;;;;;;0.90;0.40;;;9.10;55.80;;;;;;20820108;28;20049;-75
2021/04/05 19:53:46;;;;;;;1.48;0.57;;;9.10;55.80;;;;;;20786451;28;20490;-75
2021/04/05 20:04:11;;;;;;;0.17;0.17;;;9.10;55.80;;;;;;20832407;28;20035;-76
2021/04/05 20:14:44;;;;;;;0.00;0.00;;;9.10;55.70;;;;;;20836571;28;20037;-77
2021/04/05 20:25:10;;;;;;;0.75;0.20;;;9.00;55.70;;;;;;20836366;28;20116;-74
2021/04/05 20:35:18;;;;;;;0.85;0.28;;;9.10;55.70;;;;;;20814142;28;20042;-75
2021/04/05 20:45:27;;;;;;;0.08;0.08;;;9.10;55.80;;;;;;20835442;28;20029;-77
2021/04/05 20:55:32;;;;;;;3.53;0.55;;;9.10;55.90;;;;;;20796030;28;20045;-78
2021/04/05 21:05:33;;;;;;;0.20;0.20;;;9.10;56.00;;;;;;20817597;28;20084;-76
2021/04/05 21:15:35;;;;;;;0.20;0.20;;;9.00;56.00;;;;;;20815466;28;20119;-73
2021/04/05 21:25:39;;;;;;;2.00;0.17;;;9.10;56.10;;;;;;20812605;28;20377;-77
2021/04/05 21:35:44;;;;;;;0.30;0.10;;;9.10;56.20;;;;;;20785171;28;20037;-78
2021/04/05 21:46:02;;;;;;;5.07;0.90;;;9.00;56.20;;;;;;20786362;28;20128;-75
2021/04/05 21:56:13;;;;;;;0.15;0.15;;;9.00;56.20;;;;;;20809042;28;20049;-74
2021/04/05 22:06:15;;;;;;;0.10;0.10;;;9.00;56.30;;;;;;20790740;28;20064;-73
2021/04/05 22:16:16;;;;;;;0.05;0.05;;;9.00;56.30;;;;;;20777061;28;20072;-77
2021/04/05 22:26:38;;;;;;;0.20;0.10;;;9.10;56.40;;;;;;20777043;28;20132;-76
2021/04/05 22:36:56;;;;;;;0.10;0.10;;;9.00;56.40;;;;;;20780104;28;20041;-77
2021/04/05 22:46:59;;;;;;;0.10;0.10;;;9.00;56.50;;;;;;20790384;28;20038;-76
2021/04/05 22:56:59;;;;;;;3.40;0.52;;;9.10;56.60;;;;;;20777580;28;20029;-75
2021/04/05 23:07:00;;;;;;;0.80;0.28;;;9.10;56.60;;;;;;20799034;28;20574;-75
2021/04/05 23:17:03;;;;;;;1.27;0.45;;;9.00;56.70;;;;;;20782995;28;20044;-76
2021/04/05 23:27:08;;;;;;;0.20;0.20;;;9.00;56.70;;;;;;20806738;28;20041;-75
2021/04/05 23:37:17;;;;;;;0.38;0.20;;;9.00;56.80;;;;;;20805146;28;20044;-75
2021/04/05 23:47:17;;;;;;;0.08;0.08;;;9.00;56.80;;;;;;20789089;28;20491;-75
2021/04/05 23:57:26;;;;;;;0.00;0.00;;;9.00;56.80;;;;;;20788594;28;20125;-75
